createdAt,value
2023-01-13T00:04:53.417Z,1545
2023-01-13T00:10:23.712Z,1547
2023-01-13T00:15:54.363Z,1565
2023-01-13T00:21:24.809Z,1571
2023-01-13T00:26:55.252Z,1574
2023-01-13T00:32:25.902Z,1582
2023-01-13T00:37:56.363Z,1604
2023-01-13T00:43:26.966Z,1620
2023-01-13T00:48:57.419Z,1649
2023-01-13T00:54:27.874Z,1659
2023-01-13T00:59:58.486Z,1655
2023-01-13T01:05:29.018Z,1657
2023-01-13T01:10:59.465Z,1659
2023-01-13T01:16:30.169Z,1666
2023-01-13T01:22:00.575Z,1667
2023-01-13T01:27:30.994Z,1672
2023-01-13T01:33:01.592Z,1665
2023-01-13T01:38:32.104Z,1660
2023-01-13T01:44:02.842Z,1673
2023-01-13T01:49:33.156Z,1684
2023-01-13T02:09:22.965Z,1720
2023-01-13T02:14:52.697Z,1714
2023-01-13T02:20:23.183Z,1723
2023-01-13T02:25:53.670Z,1750
2023-01-13T02:31:21.340Z,1793
2023-01-13T02:36:52.019Z,1819
2023-01-13T02:42:22.484Z,1827
2023-01-13T02:47:53.218Z,1833
2023-01-13T02:53:23.706Z,1862
2023-01-13T02:58:54.187Z,1841
2023-01-13T03:04:24.737Z,1807
2023-01-13T03:09:54.240Z,1810
2023-01-13T03:15:24.839Z,1808
2023-01-13T03:20:55.290Z,1806
2023-01-13T03:26:25.953Z,1814
2023-01-13T03:31:56.424Z,1830
2023-01-13T03:37:26.013Z,1837
2023-01-13T03:42:56.481Z,1845
2023-01-13T03:48:26.979Z,1843
2023-01-13T03:53:57.650Z,1846
2023-01-13T03:59:27.196Z,1840
2023-01-13T04:04:57.691Z,1872
2023-01-13T04:10:28.131Z,1894
2023-01-13T04:15:58.895Z,1899
2023-01-13T04:21:29.352Z,1889
2023-01-13T04:26:59.890Z,1899
2023-01-13T04:32:30.371Z,1856
2023-01-13T04:38:00.880Z,1850
2023-01-13T04:43:31.464Z,1843
2023-01-13T04:49:01.942Z,1845
2023-01-13T04:54:32.507Z,1849
2023-01-13T05:00:01.902Z,1822
2023-01-13T05:05:32.375Z,1803
2023-01-13T05:11:01.884Z,1819
2023-01-13T05:16:32.382Z,1818
2023-01-13T05:22:02.945Z,1688
2023-01-13T05:27:32.458Z,1613
2023-01-13T05:33:02.921Z,1601
2023-01-13T05:38:32.411Z,1552
2023-01-13T05:44:02.912Z,1487
2023-01-13T05:49:33.374Z,1434
2023-01-13T05:55:03.950Z,1400
2023-01-13T06:00:34.454Z,1369
2023-01-13T06:06:04.917Z,1340
2023-01-13T06:11:35.499Z,1317
2023-01-13T06:17:06.010Z,1287
2023-01-13T06:22:36.471Z,1274
2023-01-13T06:28:07.066Z,1255
2023-01-13T06:33:37.559Z,1232
2023-01-13T06:39:08.013Z,1222
2023-01-13T06:44:37.502Z,1203
2023-01-13T06:50:08.016Z,1192
2023-01-13T06:55:38.581Z,1176
2023-01-13T07:01:09.386Z,1157
2023-01-13T07:06:39.691Z,1152
2023-01-13T07:12:10.257Z,1142
2023-01-13T07:17:40.723Z,1147
2023-01-13T07:24:17.326Z,1127
2023-01-13T07:29:47.881Z,1117
2023-01-13T07:35:18.361Z,1109
2023-01-13T07:40:47.878Z,1105
2023-01-13T07:46:18.330Z,1097
2023-01-13T07:51:48.812Z,1093
2023-01-13T07:57:19.449Z,1086
2023-01-13T08:02:49.911Z,1081
2023-01-13T08:08:20.343Z,1070
2023-01-13T08:13:51.180Z,1068
2023-01-13T08:19:21.542Z,1064
2023-01-13T08:24:52.017Z,1060
2023-01-13T08:30:21.538Z,1050
2023-01-13T08:35:51.986Z,1052
2023-01-13T08:41:22.454Z,1038
2023-01-13T08:46:53.266Z,1030
2023-01-13T08:52:23.640Z,1027
2023-01-13T08:58:00.508Z,1019
2023-01-13T09:04:30.873Z,1018
2023-01-13T09:10:01.307Z,1010
2023-01-13T09:15:32.008Z,1007
2023-01-13T09:21:02.543Z,1004
2023-01-13T09:26:33.009Z,1000
2023-01-13T09:32:03.826Z,993
2023-01-13T09:37:34.374Z,988
2023-01-13T09:43:04.839Z,983
2023-01-13T09:48:35.306Z,978
2023-01-13T09:54:05.941Z,974
2023-01-13T09:59:36.570Z,967
2023-01-13T10:05:07.087Z,966
2023-01-13T10:10:37.477Z,960
2023-01-13T10:16:07.976Z,960
2023-01-13T10:21:38.530Z,954
2023-01-13T10:27:09.036Z,951
2023-01-13T10:32:39.480Z,946
2023-01-13T10:38:08.984Z,945
2023-01-13T10:43:39.498Z,942
2023-01-13T10:49:10.052Z,941
2023-01-13T10:54:40.527Z,938
2023-01-13T11:00:11.038Z,935
2023-01-13T11:05:40.503Z,931
2023-01-13T11:11:10.994Z,929
2023-01-13T11:16:52.725Z,926
2023-01-13T11:22:12.044Z,922
2023-01-13T11:27:42.539Z,915
2023-01-13T11:33:13.196Z,919
2023-01-13T11:38:43.642Z,912
2023-01-13T11:44:14.106Z,907
2023-01-13T11:49:44.734Z,908
2023-01-13T11:55:15.191Z,906
2023-01-13T12:00:45.662Z,905
2023-01-13T12:06:16.281Z,902
2023-01-13T12:11:46.736Z,899
2023-01-13T12:17:17.212Z,910
2023-01-13T12:22:46.881Z,904
2023-01-13T12:28:17.326Z,899
2023-01-13T12:33:47.793Z,899
2023-01-13T12:39:18.385Z,898
2023-01-13T12:44:48.841Z,893
2023-01-13T12:50:19.451Z,892
2023-01-13T12:55:49.944Z,887
2023-01-13T13:01:20.541Z,878
2023-01-13T13:06:49.905Z,873
2023-01-13T13:12:20.369Z,873
2023-01-13T13:17:50.943Z,869
2023-01-13T13:24:27.533Z,868
2023-01-13T13:29:58.034Z,861
2023-01-13T13:35:28.656Z,860
2023-01-13T13:40:59.117Z,857
2023-01-13T13:46:29.648Z,852
2023-01-13T13:52:00.300Z,853
2023-01-13T13:57:30.683Z,857
2023-01-13T14:03:01.399Z,856
2023-01-13T14:08:31.824Z,851
2023-01-13T14:14:02.280Z,844
2023-01-13T14:19:32.907Z,842
2023-01-13T14:25:03.400Z,841
2023-01-13T14:30:33.822Z,833
2023-01-13T14:36:03.470Z,835
2023-01-13T14:41:33.946Z,826
2023-01-13T14:47:04.415Z,831
2023-01-13T14:52:33.942Z,835
2023-01-13T14:58:04.386Z,834
2023-01-13T15:03:34.847Z,838
2023-01-13T15:09:04.360Z,825
2023-01-13T15:14:34.855Z,822
2023-01-13T15:20:04.323Z,821
2023-01-13T15:25:34.817Z,823
2023-01-13T15:31:05.309Z,821
2023-01-13T15:36:35.868Z,816
2023-01-13T15:42:06.397Z,817
2023-01-13T15:47:36.852Z,815
2023-01-13T15:53:07.404Z,814
2023-01-13T15:58:37.986Z,809
2023-01-13T16:04:08.468Z,848
2023-01-13T16:09:39.056Z,838
2023-01-13T16:15:09.566Z,835
2023-01-13T16:20:40.160Z,837
2023-01-13T16:26:10.634Z,831
2023-01-13T16:31:41.260Z,839
2023-01-13T16:37:11.736Z,839
2023-01-13T16:42:42.221Z,854
2023-01-13T16:48:12.719Z,873
2023-01-13T16:53:42.196Z,929
2023-01-13T16:59:11.695Z,910
2023-01-13T17:04:42.193Z,913
2023-01-13T17:10:12.631Z,922
2023-01-13T17:15:43.221Z,924
2023-01-13T17:21:13.750Z,927
2023-01-13T17:26:44.267Z,937
2023-01-13T17:32:14.802Z,953
2023-01-13T17:37:45.290Z,968
2023-01-13T17:43:14.781Z,991
2023-01-13T17:48:45.237Z,1003
2023-01-13T17:54:15.729Z,1006
2023-01-13T17:59:45.192Z,1010
2023-01-13T18:05:15.712Z,1015
2023-01-13T18:10:46.183Z,1023
2023-01-13T18:16:16.742Z,1017
2023-01-13T18:21:47.391Z,1018
2023-01-13T18:27:16.905Z,1031
2023-01-13T18:32:47.345Z,1028
2023-01-13T18:38:17.815Z,1030
2023-01-13T18:43:48.471Z,1036
2023-01-13T18:49:18.908Z,1040
2023-01-13T18:54:49.371Z,1055
2023-01-13T19:01:25.137Z,1079
2023-01-13T19:06:55.453Z,1103
2023-01-13T19:12:26.104Z,1128
2023-01-13T19:17:56.893Z,1159
2023-01-13T19:23:27.088Z,1206
2023-01-13T19:28:57.687Z,1229
2023-01-13T19:34:28.210Z,1234
2023-01-13T19:39:58.641Z,1272
2023-01-13T19:45:29.252Z,1288
2023-01-13T19:50:59.930Z,1307
2023-01-13T19:56:30.289Z,1333
2023-01-13T20:02:00.982Z,1353
2023-01-13T20:07:31.480Z,1366
2023-01-13T20:13:01.989Z,1379
2023-01-13T20:18:32.467Z,1372
2023-01-13T20:24:02.956Z,1377
2023-01-13T20:29:33.529Z,1383
2023-01-13T20:35:04.300Z,1381
2023-01-13T20:40:34.638Z,1384
2023-01-13T20:46:05.148Z,1385
2023-01-13T20:51:35.620Z,1383
2023-01-13T20:57:06.313Z,1390
2023-01-13T21:02:36.706Z,1547
2023-01-13T21:08:07.200Z,1735
2023-01-13T21:13:36.703Z,1799
2023-01-13T21:19:07.279Z,1848
2023-01-13T21:24:37.867Z,1902
2023-01-13T21:30:08.563Z,2013
2023-01-13T21:35:38.842Z,2053
2023-01-13T21:41:08.314Z,2240
2023-01-13T21:46:38.821Z,2229
2023-01-13T21:52:09.285Z,2220
2023-01-13T21:57:38.762Z,2334
2023-01-13T22:03:09.261Z,2400
2023-01-13T22:08:39.833Z,2463
2023-01-13T22:14:10.301Z,2499
2023-01-13T22:19:40.811Z,2559
2023-01-13T22:25:10.266Z,2661
2023-01-13T22:30:40.757Z,2688
2023-01-13T22:36:11.236Z,2769
2023-01-13T22:41:41.938Z,2743
2023-01-13T22:47:12.409Z,2813
2023-01-13T22:52:42.894Z,2899
2023-01-13T22:58:13.501Z,3009
2023-01-13T23:03:44.020Z,3112
2023-01-13T23:09:14.447Z,3319
2023-01-13T23:14:45.025Z,3498
2023-01-13T23:20:15.478Z,3479
2023-01-13T23:25:46.093Z,3533
2023-01-13T23:31:16.569Z,3566
2023-01-13T23:36:47.112Z,3574
2023-01-13T23:42:16.607Z,3599
2023-01-13T23:47:47.054Z,3651
2023-01-13T23:53:17.703Z,3667
2023-01-13T23:58:48.121Z,3712
